Diego Garcia, British Indian Ocean

12:36 AM IOT on July 04, 2015 (GMT +0600)
Diego Garcia Navy | | Change Station
CLOSE
Current Station
Airport
Location: Diego Garcia,
Elevation: 10 ft
Nearby Weather Stations

Elev 10 ft 7.31 °S, 72.41 °E | Updated 41 minutes ago

Mostly Cloudy
Mostly Cloudy
80 °F
Feels Like 85 °F
N
13
Wind Variable Wind from SE

Today
High -- | Low -- °F
--% Chance of Precip.
Yesterday
High -- | Low -- °F
Precip. -- in
7:23 AM 7:06 PM
Waning Gibbous, 96% visible
Pressure 29.98 in
Visibility 6.2 miles
Clouds Few 2000 ft
Scattered Clouds 8000 ft
Mostly Cloudy 22000 ft
Heat Index 85 °F
Dew Point 76 °F
Humidity 87%
Rainfall 0.68 in
Snow Depth Not available.
UV 0 out of 12
Pollen Not available.
Air Quality Not available.
Flu Activity Not available.
METAR FJDG 031755Z 13011KT 9999 FEW020 SCT080 BKN220 27/24 A2999 RMK SLP152 8/272 T02670243 10278 20267 403060255 51007

More Conditions Fewer Conditions

Pressure 29.98 in
Visibility 6.2 miles
Clouds Few 2000 ft
Scattered Clouds 8000 ft
Mostly Cloudy 22000 ft
Heat Index 85 °F
Dew Point 76 °F
Humidity 87%
Rainfall 0.68 in
Snow Depth Not available.
UV 0 out of 12
Pollen Not available.
Air Quality Not available.
Flu Activity Not available.
METAR FJDG 031755Z 13011KT 9999 FEW020 SCT080 BKN220 27/24 A2999 RMK SLP152 8/272 T02670243 10278 20267 403060255 51007

More Conditions Fewer Conditions

10-Day Weather Forecast

×

Almanac

Astronomy

Jul. 04, 2015 Rise Set
Actual Time
Civil Twilight
Nautical Twilight
Astronomical Twilight
Moon
Length of Visible Light
Length of Day
Tomorrow will be .
, % of the Moon is Illuminated

Today's Extremes

Country Highs Country Lows

Community

WunderPhotos

Upload Photos

1,834,737 photos uploaded!

WunderBlogs® & News

Nearby

Air Quality

  Air Quality AQ Index Pollutant
Not available.

Snow Depth

Station Depth Elevation

Earthquake Activity

City Distance Mag. Time & Date
Minimum magnitude displayed is 2.5.

Coastal Water Temperatures

Place Temperature

Stations

Nearby Weather Stations

Station Location Temp. Windchill Dew Point Humidity Wind Precip. Elev Updated Type